createdAt,value
2023-03-26T00:02:24.139Z,39.17
2023-03-26T00:04:55.065Z,39.17
2023-03-26T00:07:25.006Z,39.23
2023-03-26T00:09:54.992Z,39.29
2023-03-26T00:12:25.219Z,39.27
2023-03-26T00:14:55.558Z,39.27
2023-03-26T00:17:26.061Z,39.23
2023-03-26T00:19:57.829Z,39.32
2023-03-26T00:22:27.711Z,39.30
2023-03-26T00:24:58.308Z,39.29
2023-03-26T00:27:28.651Z,39.28
2023-03-26T00:30:00.392Z,39.28
2023-03-26T00:32:33.785Z,39.24
2023-03-26T00:35:04.862Z,39.27
2023-03-26T00:37:35.698Z,39.30
2023-03-26T00:40:14.422Z,39.23
2023-03-26T00:42:44.376Z,39.28
2023-03-26T00:45:14.380Z,39.22
2023-03-26T00:47:47.676Z,39.26
2023-03-26T00:50:17.670Z,39.31
2023-03-26T00:52:47.559Z,39.27
2023-03-26T00:55:17.717Z,39.29
2023-03-26T00:57:47.576Z,39.30
2023-03-26T01:00:18.193Z,39.31
2023-03-26T01:02:48.489Z,39.28
2023-03-26T01:05:42.132Z,39.30
2023-03-26T01:08:35.537Z,39.36
2023-03-26T01:11:10.392Z,39.30
2023-03-26T01:13:43.204Z,39.30
2023-03-26T01:16:17.326Z,39.31
2023-03-26T01:18:47.392Z,39.33
2023-03-26T01:21:19.985Z,39.38
2023-03-26T01:23:51.782Z,39.35
2023-03-26T01:26:27.386Z,39.40
2023-03-26T01:28:59.482Z,39.44
2023-03-26T01:31:33.768Z,39.45
2023-03-26T01:34:13.049Z,39.40
2023-03-26T01:37:16.437Z,39.40
2023-03-26T01:39:53.130Z,39.38
2023-03-26T01:42:29.070Z,39.35
2023-03-26T01:45:22.269Z,39.37
2023-03-26T01:47:52.396Z,39.42
2023-03-26T01:50:22.505Z,39.37
2023-03-26T01:52:55.162Z,39.41
2023-03-26T01:55:26.935Z,39.39
2023-03-26T01:58:11.446Z,39.37
2023-03-26T02:00:47.152Z,39.31
2023-03-26T02:03:20.340Z,39.32
2023-03-26T02:05:57.927Z,39.28
2023-03-26T02:08:37.756Z,39.34
2023-03-26T02:11:14.328Z,39.33
2023-03-26T02:13:47.868Z,39.25
2023-03-26T02:16:20.893Z,39.25
2023-03-26T02:18:54.462Z,39.26
2023-03-26T02:21:26.753Z,39.21
2023-03-26T02:24:02.359Z,39.21
2023-03-26T02:26:33.213Z,39.23
2023-03-26T02:29:03.580Z,39.20
2023-03-26T02:31:35.207Z,39.17
2023-03-26T02:34:06.921Z,39.19
2023-03-26T02:36:37.622Z,39.17
2023-03-26T02:39:09.043Z,39.16
2023-03-26T02:41:39.968Z,39.13
2023-03-26T02:44:11.901Z,39.08
2023-03-26T02:46:44.892Z,39.10
2023-03-26T02:49:18.149Z,39.08
2023-03-26T02:51:50.204Z,39.08
2023-03-26T02:54:21.331Z,39.21
2023-03-26T02:56:52.802Z,39.21
2023-03-26T02:59:23.954Z,38.98
2023-03-26T03:01:53.974Z,38.94
2023-03-26T03:04:25.296Z,38.90
2023-03-26T03:06:57.662Z,38.85
2023-03-26T03:09:30.246Z,38.81
2023-03-26T03:12:03.914Z,38.78
2023-03-26T03:14:35.840Z,38.63
2023-03-26T03:17:07.135Z,38.63
2023-03-26T03:19:38.810Z,38.69
2023-03-26T03:22:11.959Z,38.66
2023-03-26T03:24:44.348Z,38.64
2023-03-26T03:27:15.220Z,38.64
2023-03-26T03:29:46.645Z,38.59
2023-03-26T03:32:16.672Z,38.56
2023-03-26T03:34:47.136Z,38.54
2023-03-26T03:37:18.172Z,38.54
2023-03-26T03:39:49.133Z,38.52
2023-03-26T03:42:20.726Z,38.48
2023-03-26T03:44:51.389Z,38.45
2023-03-26T03:47:21.914Z,38.49
2023-03-26T03:49:51.935Z,38.45
2023-03-26T03:52:26.718Z,38.44
2023-03-26T03:54:59.170Z,38.44
2023-03-26T03:57:30.222Z,38.44
2023-03-26T04:00:00.426Z,38.41
2023-03-26T04:02:35.200Z,38.41
2023-03-26T04:05:05.427Z,38.38
2023-03-26T04:07:35.342Z,38.36
2023-03-26T04:10:06.688Z,38.37
2023-03-26T04:12:36.987Z,38.38
2023-03-26T04:15:08.934Z,38.36
2023-03-26T04:17:40.649Z,38.34
2023-03-26T04:20:14.535Z,38.32
2023-03-26T04:22:45.690Z,38.26
2023-03-26T04:25:17.625Z,38.28
2023-03-26T04:27:48.659Z,38.34
2023-03-26T04:30:21.471Z,38.30
2023-03-26T04:32:52.226Z,38.27
2023-03-26T04:35:22.692Z,38.26
2023-03-26T04:37:53.761Z,38.24
2023-03-26T04:40:24.506Z,38.25
2023-03-26T04:42:55.941Z,38.23
2023-03-26T04:45:26.331Z,38.29
2023-03-26T04:47:56.648Z,38.30
2023-03-26T04:50:27.322Z,38.34
2023-03-26T04:53:00.871Z,38.36
2023-03-26T04:55:50.017Z,38.31
2023-03-26T04:58:20.606Z,38.34
2023-03-26T05:00:52.244Z,38.31
2023-03-26T05:03:24.581Z,38.35
2023-03-26T05:05:55.970Z,38.29
2023-03-26T05:11:38.326Z,38.30
2023-03-26T05:14:11.208Z,38.29
2023-03-26T05:16:41.981Z,38.30
2023-03-26T05:19:12.902Z,38.26
2023-03-26T05:21:45.460Z,38.27
2023-03-26T05:24:18.055Z,38.26
2023-03-26T05:26:53.767Z,38.27
2023-03-26T05:29:39.789Z,38.26
2023-03-26T05:32:12.365Z,38.21
2023-03-26T05:40:47.351Z,38.22
2023-03-26T05:43:19.425Z,38.20
2023-03-26T05:45:52.005Z,38.20
2023-03-26T05:48:24.077Z,38.17
2023-03-26T05:50:55.534Z,38.18
2023-03-26T05:53:27.364Z,38.17
2023-03-26T05:55:59.750Z,38.16
2023-03-26T05:58:30.990Z,38.13
2023-03-26T06:01:04.139Z,38.12
2023-03-26T06:03:36.049Z,38.14
2023-03-26T06:06:08.679Z,38.10
2023-03-26T06:08:41.280Z,38.11
2023-03-26T06:11:14.139Z,38.12
2023-03-26T06:13:45.382Z,38.09
2023-03-26T06:16:27.190Z,38.10
2023-03-26T06:18:50.004Z,38.06
2023-03-26T06:21:22.725Z,38.09
2023-03-26T06:23:54.313Z,38.04
2023-03-26T06:26:26.236Z,38.04
2023-03-26T06:28:57.598Z,38.03
2023-03-26T06:31:29.529Z,38.04
2023-03-26T06:34:01.298Z,38.04
2023-03-26T06:36:31.368Z,38.01
2023-03-26T06:39:01.242Z,38.02
2023-03-26T06:41:34.879Z,38.01
2023-03-26T06:44:04.784Z,38.00
2023-03-26T06:46:34.743Z,38.00
2023-03-26T06:49:04.743Z,37.99
2023-03-26T06:51:34.697Z,37.75
2023-03-26T06:54:04.771Z,37.75
2023-03-26T06:56:34.822Z,37.97
2023-03-26T06:59:04.809Z,38.00
2023-03-26T07:01:35.080Z,37.98
2023-03-26T07:04:05.162Z,37.98
2023-03-26T07:06:35.491Z,37.95
2023-03-26T07:09:05.360Z,37.94
2023-03-26T07:11:35.474Z,37.92
2023-03-26T07:14:05.340Z,37.92
2023-03-26T07:16:35.291Z,37.91
2023-03-26T07:19:05.738Z,37.92
2023-03-26T07:21:36.044Z,37.90
2023-03-26T07:24:06.339Z,37.89
2023-03-26T07:26:59.891Z,37.91
2023-03-26T07:29:41.357Z,37.91
2023-03-26T07:32:26.628Z,37.88
2023-03-26T07:35:05.062Z,37.85
2023-03-26T07:46:49.597Z,37.84
2023-03-26T07:49:19.058Z,37.85
2023-03-26T07:51:49.775Z,37.84
2023-03-26T07:54:20.160Z,37.84
2023-03-26T07:57:02.219Z,37.82
2023-03-26T07:59:40.487Z,37.81
2023-03-26T08:02:21.793Z,37.81
2023-03-26T08:04:54.852Z,37.80
2023-03-26T08:07:30.572Z,37.79
2023-03-26T08:10:15.059Z,37.82
2023-03-26T08:12:52.138Z,37.81
2023-03-26T08:15:26.342Z,37.79
2023-03-26T08:18:17.057Z,37.74
2023-03-26T08:20:49.721Z,37.78
2023-03-26T08:23:31.529Z,37.75
2023-03-26T08:26:10.187Z,37.75
2023-03-26T08:28:54.899Z,37.73
2023-03-26T08:31:27.584Z,37.73
2023-03-26T08:33:57.672Z,37.74
2023-03-26T08:36:28.352Z,37.74
2023-03-26T08:38:59.592Z,37.72
2023-03-26T08:41:41.596Z,37.71
2023-03-26T08:44:33.225Z,37.70
2023-03-26T08:47:25.132Z,37.70
2023-03-26T08:50:20.018Z,37.69
2023-03-26T08:52:52.587Z,37.68
2023-03-26T08:55:49.254Z,37.66
2023-03-26T08:58:41.251Z,37.64
2023-03-26T09:01:32.678Z,37.66
2023-03-26T09:04:20.385Z,37.64
2023-03-26T09:06:53.173Z,37.65
2023-03-26T09:09:57.257Z,37.66
2023-03-26T09:12:47.909Z,37.64
2023-03-26T09:15:41.681Z,37.62
2023-03-26T09:18:48.090Z,37.62
2023-03-26T09:21:37.218Z,37.63
2023-03-26T09:24:09.836Z,37.61
2023-03-26T09:26:51.831Z,37.62
2023-03-26T09:29:36.861Z,37.59
2023-03-26T09:32:12.269Z,37.61
2023-03-26T09:34:45.383Z,37.58
2023-03-26T09:37:57.095Z,37.59
2023-03-26T09:40:20.254Z,37.58
2023-03-26T09:42:59.111Z,37.58
2023-03-26T09:45:47.930Z,37.58
2023-03-26T09:48:37.068Z,37.56
2023-03-26T09:51:30.606Z,37.56
2023-03-26T09:54:22.724Z,37.55
2023-03-26T09:57:20.607Z,37.55
2023-03-26T10:00:02.384Z,37.53
2023-03-26T10:02:51.648Z,37.54
2023-03-26T10:05:30.453Z,37.53
2023-03-26T10:08:32.176Z,37.52
2023-03-26T10:11:22.851Z,37.52
2023-03-26T10:14:02.099Z,37.50
2023-03-26T10:16:37.454Z,37.51
2023-03-26T10:19:29.929Z,37.51
2023-03-26T10:22:19.199Z,37.52
2023-03-26T10:25:30.761Z,37.53
2023-03-26T10:28:06.414Z,37.53
2023-03-26T10:30:57.762Z,37.50
2023-03-26T10:33:51.353Z,37.50
2023-03-26T10:36:27.529Z,37.48
2023-03-26T10:39:00.429Z,37.46
2023-03-26T10:41:44.984Z,37.48
2023-03-26T10:44:41.021Z,37.49
2023-03-26T10:47:38.323Z,37.47
2023-03-26T10:50:27.751Z,37.47
2023-03-26T10:53:03.567Z,37.47
2023-03-26T10:55:47.476Z,37.47
2023-03-26T10:58:46.071Z,37.46
2023-03-26T11:01:06.544Z,37.45
2023-03-26T11:03:40.842Z,37.45
2023-03-26T11:06:26.292Z,37.44
2023-03-26T11:09:15.297Z,37.46
2023-03-26T11:11:54.941Z,37.30
2023-03-26T11:14:56.973Z,37.42
2023-03-26T11:17:40.244Z,37.42
2023-03-26T11:20:38.911Z,37.40
2023-03-26T11:23:39.682Z,37.42
2023-03-26T11:26:21.009Z,37.52
2023-03-26T11:29:04.049Z,37.50
2023-03-26T11:31:25.967Z,37.54
2023-03-26T11:33:58.357Z,37.60
2023-03-26T11:36:31.180Z,37.66
2023-03-26T11:39:01.705Z,37.66
2023-03-26T11:41:34.463Z,37.72
2023-03-26T11:44:37.318Z,37.77
2023-03-26T11:47:10.528Z,37.79
2023-03-26T11:49:40.542Z,37.84
2023-03-26T11:52:16.060Z,37.88
2023-03-26T11:54:49.743Z,37.91
2023-03-26T11:57:24.646Z,37.89
2023-03-26T11:59:59.977Z,37.88
2023-03-26T12:02:34.903Z,37.97
2023-03-26T12:05:16.611Z,37.94
2023-03-26T12:07:58.038Z,37.90
2023-03-26T12:10:41.161Z,37.91
2023-03-26T12:13:33.521Z,37.85
2023-03-26T12:16:08.839Z,37.88
2023-03-26T12:18:39.050Z,38.31
2023-03-26T12:21:14.467Z,38.51
2023-03-26T12:23:57.724Z,38.71
2023-03-26T12:26:47.047Z,38.75
2023-03-26T12:29:21.085Z,38.83
2023-03-26T12:31:56.436Z,38.76
2023-03-26T12:34:30.012Z,38.64
2023-03-26T12:37:03.261Z,38.64
2023-03-26T12:40:10.338Z,38.63
2023-03-26T12:44:44.019Z,38.63
2023-03-26T12:48:02.243Z,37.79
2023-03-26T12:50:04.401Z,37.91
2023-03-26T12:52:43.397Z,37.81
2023-03-26T12:55:25.501Z,37.51
2023-03-26T12:58:13.348Z,37.32
2023-03-26T13:00:42.488Z,37.17
2023-03-26T13:03:21.101Z,37.05
2023-03-26T13:06:22.421Z,37.07
2023-03-26T13:09:11.359Z,37.11
2023-03-26T13:12:10.042Z,37.24
2023-03-26T13:14:54.890Z,37.07
2023-03-26T13:17:36.666Z,36.82
2023-03-26T13:20:19.536Z,36.74
2023-03-26T13:23:01.739Z,36.64
2023-03-26T13:25:49.342Z,36.45
2023-03-26T13:28:31.585Z,36.53
2023-03-26T13:31:23.381Z,36.67
2023-03-26T13:34:07.808Z,36.97
2023-03-26T13:36:43.842Z,36.56
2023-03-26T13:39:25.122Z,36.50
2023-03-26T13:42:06.476Z,36.44
2023-03-26T13:44:53.850Z,36.32
2023-03-26T13:47:30.234Z,36.24
2023-03-26T13:50:18.545Z,36.29
2023-03-26T13:52:53.124Z,36.31
2023-03-26T13:55:31.262Z,36.37
2023-03-26T13:58:16.001Z,36.65
2023-03-26T14:00:56.817Z,36.36
2023-03-26T14:03:46.205Z,36.21
2023-03-26T14:06:43.078Z,36.04
2023-03-26T14:09:22.888Z,35.85
2023-03-26T14:11:56.923Z,35.82
2023-03-26T14:14:29.529Z,35.84
2023-03-26T14:17:04.957Z,35.97
2023-03-26T14:19:37.942Z,36.23
2023-03-26T14:22:27.883Z,36.23
2023-03-26T14:25:12.470Z,36.28
2023-03-26T14:27:57.864Z,36.17
2023-03-26T14:30:39.298Z,36.09
2023-03-26T14:33:35.740Z,36.08
2023-03-26T14:36:39.456Z,36.00
2023-03-26T14:39:22.411Z,35.94
2023-03-26T14:41:56.722Z,35.92
2023-03-26T14:44:29.907Z,35.99
2023-03-26T14:47:15.945Z,36.11
2023-03-26T14:49:50.410Z,36.15
2023-03-26T14:52:24.260Z,36.20
2023-03-26T14:54:54.878Z,36.12
2023-03-26T14:57:43.684Z,36.06
2023-03-26T15:00:20.798Z,36.03
2023-03-26T15:03:13.026Z,36.00
2023-03-26T15:05:52.671Z,36.02
2023-03-26T15:08:50.865Z,35.97
2023-03-26T15:11:41.963Z,36.01
2023-03-26T15:14:40.306Z,36.14
2023-03-26T15:17:41.221Z,36.16
2023-03-26T15:20:37.878Z,36.16
2023-03-26T15:23:26.842Z,36.16
2023-03-26T15:26:35.432Z,36.21
2023-03-26T15:29:17.366Z,36.16
2023-03-26T15:32:00.346Z,36.13
2023-03-26T15:34:51.596Z,36.13
2023-03-26T15:37:25.828Z,36.15
2023-03-26T15:40:30.612Z,36.16
2023-03-26T15:43:20.859Z,36.17
2023-03-26T15:46:12.168Z,36.20
2023-03-26T15:49:03.311Z,36.17
2023-03-26T15:55:07.124Z,36.23
2023-03-26T15:58:00.941Z,36.24
2023-03-26T16:00:33.680Z,36.23
2023-03-26T16:07:26.521Z,36.25
2023-03-26T16:10:32.630Z,36.26
2023-03-26T16:13:39.019Z,36.29
2023-03-26T16:19:35.636Z,36.32
2023-03-26T16:22:11.142Z,36.35
2023-03-26T16:44:49.088Z,36.60
2023-03-26T16:47:34.629Z,36.62
2023-03-26T16:50:11.517Z,36.67
2023-03-26T16:53:18.780Z,36.68
2023-03-26T16:55:57.719Z,36.70
2023-03-26T16:58:57.545Z,36.63
2023-03-26T17:02:30.416Z,36.72
2023-03-26T17:05:10.993Z,36.75
2023-03-26T17:08:35.391Z,36.77
2023-03-26T17:10:58.705Z,36.77
2023-03-26T17:17:30.375Z,36.76
2023-03-26T17:20:21.689Z,36.77
2023-03-26T17:23:26.344Z,36.74
2023-03-26T17:26:26.844Z,36.77
2023-03-26T17:29:25.396Z,36.83
2023-03-26T17:35:05.246Z,36.93
2023-03-26T17:44:15.319Z,36.90
2023-03-26T17:47:05.370Z,36.90
2023-03-26T17:49:47.781Z,36.89
2023-03-26T17:52:58.426Z,36.90
2023-03-26T17:59:16.940Z,36.89
2023-03-26T18:01:46.388Z,36.92
2023-03-26T18:05:17.597Z,36.93
2023-03-26T18:08:27.601Z,36.94
2023-03-26T18:11:33.828Z,36.96
2023-03-26T18:14:35.432Z,36.96
2023-03-26T18:20:21.391Z,37.01
2023-03-26T18:22:56.193Z,37.02
2023-03-26T18:26:14.355Z,37.01
2023-03-26T18:29:16.200Z,37.04
2023-03-26T18:34:58.675Z,37.07
2023-03-26T18:38:37.668Z,37.09
2023-03-26T18:41:21.524Z,37.08
2023-03-26T18:44:15.235Z,37.09
2023-03-26T18:47:09.969Z,37.11
2023-03-26T18:49:45.681Z,37.11
2023-03-26T18:55:27.593Z,37.16
2023-03-26T18:57:55.482Z,37.13
2023-03-26T19:00:26.374Z,37.17
2023-03-26T19:03:05.202Z,37.18
2023-03-26T19:05:38.647Z,37.15
2023-03-26T19:08:21.533Z,37.12
2023-03-26T19:14:25.631Z,37.14
2023-03-26T19:18:06.068Z,37.17
2023-03-26T19:20:43.333Z,37.13
2023-03-26T19:23:26.991Z,37.18
2023-03-26T19:26:02.964Z,37.14
2023-03-26T19:28:54.158Z,37.14
2023-03-26T19:35:06.985Z,37.15
2023-03-26T19:38:00.318Z,37.10
2023-03-26T19:46:04.118Z,37.12
2023-03-26T19:48:46.046Z,37.09
2023-03-26T19:51:10.984Z,37.08
2023-03-26T19:53:41.632Z,37.11
2023-03-26T19:59:17.114Z,37.09
2023-03-26T20:02:25.369Z,37.05
2023-03-26T20:17:44.874Z,37.03
2023-03-26T20:20:16.850Z,37.05
2023-03-26T20:23:18.136Z,37.04
2023-03-26T20:33:58.608Z,37.01
2023-03-26T20:35:35.769Z,37.04
2023-03-26T20:38:39.003Z,37.03
2023-03-26T20:47:32.451Z,37.08
2023-03-26T20:59:36.507Z,37.05
2023-03-26T21:02:20.894Z,37.08
2023-03-26T21:15:23.426Z,37.02
2023-03-26T21:17:56.013Z,37.07
2023-03-26T21:20:40.073Z,37.07
2023-03-26T21:29:25.031Z,37.02
2023-03-26T21:35:28.193Z,37.05
2023-03-26T21:38:28.292Z,37.03
2023-03-26T21:41:36.810Z,37.06
2023-03-26T21:47:32.834Z,37.08
2023-03-26T21:50:32.016Z,37.10
2023-03-26T21:56:26.890Z,37.17
2023-03-26T21:59:35.902Z,37.15
2023-03-26T22:05:57.273Z,37.08
2023-03-26T22:11:42.733Z,37.03
2023-03-26T22:14:29.683Z,37.03
2023-03-26T22:17:10.826Z,37.03
2023-03-26T22:19:48.639Z,37.03
2023-03-26T22:22:23.276Z,37.03
2023-03-26T22:24:57.198Z,37.03
2023-03-26T22:27:28.857Z,37.05
2023-03-26T22:30:23.891Z,37.06
2023-03-26T22:33:48.917Z,37.04
2023-03-26T22:36:26.858Z,37.04
2023-03-26T22:38:57.363Z,37.04
2023-03-26T22:41:50.235Z,37.05
2023-03-26T22:45:27.057Z,37.07
2023-03-26T22:51:06.130Z,37.04
2023-03-26T22:53:54.890Z,37.05
2023-03-26T22:56:58.499Z,37.09
2023-03-26T23:00:11.096Z,37.07
2023-03-26T23:02:54.127Z,37.07
2023-03-26T23:06:12.409Z,37.06
2023-03-26T23:08:45.332Z,37.08
2023-03-26T23:14:59.261Z,37.04
2023-03-26T23:17:55.366Z,37.07
2023-03-26T23:21:06.385Z,37.07
2023-03-26T23:27:07.995Z,37.07
2023-03-26T23:29:51.343Z,37.11
2023-03-26T23:32:24.925Z,37.18
2023-03-26T23:35:43.880Z,37.22
2023-03-26T23:37:43.699Z,37.29
2023-03-26T23:40:21.015Z,37.19
2023-03-26T23:42:51.588Z,37.20
2023-03-26T23:48:32.954Z,37.18
2023-03-26T23:51:04.112Z,37.18
2023-03-26T23:53:39.419Z,37.24
2023-03-26T23:56:42.805Z,37.29
2023-03-26T23:59:23.101Z,37.28
